Terminal Aerodrome Forecast
Issued by NWS

Current Version | Previous Version | Text Only | Print | Product List | Glossary Off
Versions: 1 2 3 4 5 6 7 8 9 10 11 12 13 14 15 16 17

437
FTUS41 KPBZ 190522
TAFHLG
TAF
KHLG 190522Z 1906/2006 35007KT P6SM -SHRA BKN045
     FM190800 34007KT P6SM VCSH BKN022
     FM191200 31012G20KT 3SM -SHSN OVC012
     FM191700 32013G26KT P6SM VCSH BKN025
     FM192200 31012KT P6SM BKN025
     FM200300 32008KT P6SM SCT020=

USA.gov is the U.S. government's official web portal to all federal, state and local government web resources and services.